Terminal Aerodrome Forecast
Issued by NWS Pendleton, OR

Home | Current Version | Previous Version | Text Only | Print | Product List | Glossary On
Versions: 1 2 3 4 5 6 7 8 9 10 11 12 13 14 15 16 17
000
FTUS46 KPDT 230539
TAFPDT
TAF
KPDT 230539Z 2306/2406 27008KT P6SM BKN060 BKN100
     FM231800 25012KT P6SM BKN050 BKN100
      TEMPO 2323/2403 -RA BKN050 BKN100
     FM240300 28012G22KT P6SM -RA BKN050 BKN100=

USA.gov is the U.S. government's official web portal to all federal, state and local government web resources and services.